sensor_id;sensor_type;location;lat;lon;timestamp;pressure;altitude;pressure_sealevel;temperature;humidity
48846;BME280;34665;51.886;5.436;2023-02-12T00:00:43;103705.25;;;18.25;73.78
48846;BME280;34665;51.886;5.436;2023-02-12T00:03:09;103700.44;;;18.35;73.58
48846;BME280;34665;51.886;5.436;2023-02-12T00:05:38;103698.72;;;18.42;73.64
48846;BME280;34665;51.886;5.436;2023-02-12T00:08:05;103699.44;;;18.36;73.49
48846;BME280;34665;51.886;5.436;2023-02-12T00:10:31;103696.22;;;18.32;73.89
48846;BME280;34665;51.886;5.436;2023-02-12T00:12:56;103698.91;;;18.41;73.27
48846;BME280;34665;51.886;5.436;2023-02-12T00:15:22;103695.69;;;18.37;73.24
48846;BME280;34665;51.886;5.436;2023-02-12T00:17:47;103697.75;;;17.87;74.37
48846;BME280;34665;51.886;5.436;2023-02-12T00:20:13;103695.44;;;18.24;73.51
48846;BME280;34665;51.886;5.436;2023-02-12T00:22:38;103698.97;;;17.84;74.76
48846;BME280;34665;51.886;5.436;2023-02-12T00:25:04;103697.56;;;18.37;74.12
48846;BME280;34665;51.886;5.436;2023-02-12T00:27:34;103703.84;;;17.89;74.24
48846;BME280;34665;51.886;5.436;2023-02-12T00:29:59;103708.28;;;18.30;72.52
48846;BME280;34665;51.886;5.436;2023-02-12T00:32:25;103700.28;;;18.37;72.70
48846;BME280;34665;51.886;5.436;2023-02-12T00:34:50;103703.47;;;18.00;73.40
48846;BME280;34665;51.886;5.436;2023-02-12T00:37:16;103709.59;;;17.94;73.37
48846;BME280;34665;51.886;5.436;2023-02-12T00:39:42;103706.72;;;17.87;73.96
48846;BME280;34665;51.886;5.436;2023-02-12T00:42:09;103697.06;;;17.93;73.72
48846;BME280;34665;51.886;5.436;2023-02-12T00:44:35;103704.75;;;18.53;71.81
48846;BME280;34665;51.886;5.436;2023-02-12T00:47:02;103702.34;;;18.26;72.53
48846;BME280;34665;51.886;5.436;2023-02-12T00:49:29;103704.84;;;18.36;72.51
48846;BME280;34665;51.886;5.436;2023-02-12T00:52:01;103699.63;;;18.34;72.52
48846;BME280;34665;51.886;5.436;2023-02-12T00:54:27;103698.53;;;18.44;72.53
48846;BME280;34665;51.886;5.436;2023-02-12T00:56:54;103702.06;;;18.44;72.51
48846;BME280;34665;51.886;5.436;2023-02-12T00:59:23;103709.75;;;18.41;72.32
48846;BME280;34665;51.886;5.436;2023-02-12T01:01:50;103705.72;;;18.28;71.97
48846;BME280;34665;51.886;5.436;2023-02-12T01:04:16;103702.84;;;18.30;72.38
48846;BME280;34665;51.886;5.436;2023-02-12T01:06:43;103693.88;;;18.29;72.17
48846;BME280;34665;51.886;5.436;2023-02-12T01:09:08;103694.13;;;18.11;71.91
48846;BME280;34665;51.886;5.436;2023-02-12T01:11:34;103704.91;;;18.28;72.19
48846;BME280;34665;51.886;5.436;2023-02-12T01:13:59;103694.06;;;18.28;72.19
48846;BME280;34665;51.886;5.436;2023-02-12T01:16:26;103696.06;;;18.34;72.06
48846;BME280;34665;51.886;5.436;2023-02-12T01:18:53;103706.16;;;18.40;72.05
48846;BME280;34665;51.886;5.436;2023-02-12T01:21:24;103702.19;;;18.28;72.58
48846;BME280;34665;51.886;5.436;2023-02-12T01:23:50;103697.59;;;18.28;72.77
48846;BME280;34665;51.886;5.436;2023-02-12T01:26:17;103698.38;;;18.05;73.13
48846;BME280;34665;51.886;5.436;2023-02-12T01:28:47;103697.22;;;18.08;73.13
48846;BME280;34665;51.886;5.436;2023-02-12T01:31:19;103684.66;;;17.99;73.49
48846;BME280;34665;51.886;5.436;2023-02-12T01:33:47;103684.41;;;18.25;72.88
48846;BME280;34665;51.886;5.436;2023-02-12T01:36:13;103692.75;;;18.24;73.01
48846;BME280;34665;51.886;5.436;2023-02-12T01:38:40;103685.88;;;17.96;73.02
48846;BME280;34665;51.886;5.436;2023-02-12T01:41:12;103689.41;;;17.97;73.24
48846;BME280;34665;51.886;5.436;2023-02-12T01:43:38;103695.69;;;18.05;72.93
48846;BME280;34665;51.886;5.436;2023-02-12T01:46:05;103683.16;;;18.04;73.24
48846;BME280;34665;51.886;5.436;2023-02-12T01:48:33;103692.00;;;17.90;73.33
48846;BME280;34665;51.886;5.436;2023-02-12T01:51:01;103684.00;;;17.97;72.94
48846;BME280;34665;51.886;5.436;2023-02-12T01:53:35;103691.16;;;17.89;73.16
48846;BME280;34665;51.886;5.436;2023-02-12T01:56:02;103694.56;;;17.75;73.63
48846;BME280;34665;51.886;5.436;2023-02-12T01:58:30;103703.72;;;17.74;73.45
48846;BME280;34665;51.886;5.436;2023-02-12T02:01:01;103693.56;;;17.76;73.43
48846;BME280;34665;51.886;5.436;2023-02-12T02:03:30;103701.19;;;17.64;73.96
48846;BME280;34665;51.886;5.436;2023-02-12T02:06:05;103693.31;;;17.46;74.26
48846;BME280;34665;51.886;5.436;2023-02-12T02:08:33;103692.31;;;17.39;74.92
48846;BME280;34665;51.886;5.436;2023-02-12T02:10:58;103687.69;;;17.56;74.55
48846;BME280;34665;51.886;5.436;2023-02-12T02:13:24;103696.00;;;17.54;74.24
48846;BME280;34665;51.886;5.436;2023-02-12T02:16:22;103697.66;;;17.63;73.96
48846;BME280;34665;51.886;5.436;2023-02-12T02:19:01;103696.31;;;17.59;74.13
48846;BME280;34665;51.886;5.436;2023-02-12T02:24:50;103679.63;;;17.31;74.83
48846;BME280;34665;51.886;5.436;2023-02-12T02:30:42;103676.59;;;17.17;74.44
48846;BME280;34665;51.886;5.436;2023-02-12T02:33:26;103685.56;;;17.18;74.39
48846;BME280;34665;51.886;5.436;2023-02-12T02:39:02;103673.63;;;17.69;73.21
48846;BME280;34665;51.886;5.436;2023-02-12T02:41:54;103676.22;;;17.54;72.84
48846;BME280;34665;51.886;5.436;2023-02-12T02:44:33;103671.22;;;17.74;72.43
48846;BME280;34665;51.886;5.436;2023-02-12T02:47:02;103676.31;;;17.77;72.19
48846;BME280;34665;51.886;5.436;2023-02-12T02:49:43;103680.28;;;17.41;72.65
48846;BME280;34665;51.886;5.436;2023-02-12T02:52:17;103680.09;;;17.59;72.28
48846;BME280;34665;51.886;5.436;2023-02-12T02:54:47;103675.97;;;17.72;71.77
48846;BME280;34665;51.886;5.436;2023-02-12T02:57:27;103678.97;;;17.29;72.52
48846;BME280;34665;51.886;5.436;2023-02-12T02:59:59;103668.97;;;16.71;74.39
48846;BME280;34665;51.886;5.436;2023-02-12T03:02:31;103676.44;;;17.02;73.84
48846;BME280;34665;51.886;5.436;2023-02-12T03:05:02;103673.06;;;17.33;73.19
48846;BME280;34665;51.886;5.436;2023-02-12T03:07:34;103663.53;;;17.54;72.45
48846;BME280;34665;51.886;5.436;2023-02-12T03:10:06;103666.13;;;17.14;73.04
48846;BME280;34665;51.886;5.436;2023-02-12T03:12:38;103663.63;;;17.13;73.32
48846;BME280;34665;51.886;5.436;2023-02-12T03:15:11;103668.31;;;16.69;74.66
48846;BME280;34665;51.886;5.436;2023-02-12T03:17:45;103667.97;;;17.39;72.32
48846;BME280;34665;51.886;5.436;2023-02-12T03:20:30;103662.22;;;17.42;71.63
48846;BME280;34665;51.886;5.436;2023-02-12T03:23:03;103657.03;;;17.72;70.81
48846;BME280;34665;51.886;5.436;2023-02-12T03:25:45;103656.06;;;17.65;70.87
48846;BME280;34665;51.886;5.436;2023-02-12T03:28:28;103659.69;;;17.32;71.37
48846;BME280;34665;51.886;5.436;2023-02-12T03:31:17;103662.16;;;17.58;70.63
48846;BME280;34665;51.886;5.436;2023-02-12T03:34:08;103660.50;;;17.49;71.15
48846;BME280;34665;51.886;5.436;2023-02-12T03:42:04;103662.56;;;16.89;73.35
48846;BME280;34665;51.886;5.436;2023-02-12T03:47:36;103666.28;;;17.21;72.59
48846;BME280;34665;51.886;5.436;2023-02-12T03:50:20;103672.06;;;17.01;73.44
48846;BME280;34665;51.886;5.436;2023-02-12T03:52:50;103674.59;;;17.03;73.35
48846;BME280;34665;51.886;5.436;2023-02-12T03:55:16;103668.97;;;17.29;72.87
48846;BME280;34665;51.886;5.436;2023-02-12T03:57:48;103667.66;;;17.33;72.81
48846;BME280;34665;51.886;5.436;2023-02-12T04:00:19;103676.78;;;17.32;72.79
48846;BME280;34665;51.886;5.436;2023-02-12T04:02:49;103670.16;;;17.43;72.64
48846;BME280;34665;51.886;5.436;2023-02-12T04:05:17;103676.44;;;17.19;73.19
48846;BME280;34665;51.886;5.436;2023-02-12T04:07:43;103682.53;;;17.21;72.91
48846;BME280;34665;51.886;5.436;2023-02-12T04:10:09;103685.59;;;17.10;73.22
48846;BME280;34665;51.886;5.436;2023-02-12T04:12:42;103689.13;;;17.18;73.15
48846;BME280;34665;51.886;5.436;2023-02-12T04:15:50;103690.94;;;17.43;72.38
48846;BME280;34665;51.886;5.436;2023-02-12T04:18:33;103687.91;;;17.38;72.35
48846;BME280;34665;51.886;5.436;2023-02-12T04:21:12;103691.13;;;16.83;73.27
48846;BME280;34665;51.886;5.436;2023-02-12T04:26:38;103691.13;;;16.83;73.24
48846;BME280;34665;51.886;5.436;2023-02-12T04:29:24;103694.00;;;17.06;72.43
48846;BME280;34665;51.886;5.436;2023-02-12T04:31:59;103694.31;;;16.62;73.97
48846;BME280;34665;51.886;5.436;2023-02-12T04:34:36;103701.25;;;16.89;73.52
48846;BME280;34665;51.886;5.436;2023-02-12T04:39:32;103693.78;;;16.67;73.65
48846;BME280;34665;51.886;5.436;2023-02-12T04:42:00;103691.53;;;16.37;75.00
48846;BME280;34665;51.886;5.436;2023-02-12T04:44:32;103699.19;;;16.50;74.78
48846;BME280;34665;51.886;5.436;2023-02-12T04:46:58;103698.56;;;16.98;73.50
48846;BME280;34665;51.886;5.436;2023-02-12T04:49:24;103700.72;;;16.69;73.25
48846;BME280;34665;51.886;5.436;2023-02-12T04:51:50;103699.38;;;16.73;73.48
48846;BME280;34665;51.886;5.436;2023-02-12T04:54:17;103701.59;;;16.78;73.15
48846;BME280;34665;51.886;5.436;2023-02-12T04:56:43;103697.03;;;17.28;71.61
48846;BME280;34665;51.886;5.436;2023-02-12T04:59:10;103700.75;;;16.86;72.49
48846;BME280;34665;51.886;5.436;2023-02-12T05:01:37;103702.22;;;16.63;72.64
48846;BME280;34665;51.886;5.436;2023-02-12T05:04:03;103708.88;;;17.19;71.72
48846;BME280;34665;51.886;5.436;2023-02-12T05:06:30;103701.09;;;17.41;70.86
48846;BME280;34665;51.886;5.436;2023-02-12T05:08:56;103709.72;;;17.28;71.22
48846;BME280;34665;51.886;5.436;2023-02-12T05:11:22;103712.25;;;17.21;70.95
48846;BME280;34665;51.886;5.436;2023-02-12T05:13:51;103708.84;;;17.60;70.50
48846;BME280;34665;51.886;5.436;2023-02-12T05:16:18;103706.56;;;17.81;69.50
48846;BME280;34665;51.886;5.436;2023-02-12T05:18:44;103711.16;;;17.80;69.37
48846;BME280;34665;51.886;5.436;2023-02-12T05:21:10;103714.63;;;17.41;70.50
48846;BME280;34665;51.886;5.436;2023-02-12T05:23:37;103710.88;;;17.58;69.75
48846;BME280;34665;51.886;5.436;2023-02-12T05:26:07;103714.53;;;17.82;69.15
48846;BME280;34665;51.886;5.436;2023-02-12T05:28:33;103719.13;;;17.73;69.10
48846;BME280;34665;51.886;5.436;2023-02-12T05:31:00;103718.06;;;17.91;68.80
48846;BME280;34665;51.886;5.436;2023-02-12T05:33:26;103715.56;;;17.81;68.74
48846;BME280;34665;51.886;5.436;2023-02-12T05:35:52;103707.50;;;17.48;69.42
48846;BME280;34665;51.886;5.436;2023-02-12T05:38:17;103712.56;;;17.51;69.86
48846;BME280;34665;51.886;5.436;2023-02-12T05:40:43;103713.28;;;17.12;70.14
48846;BME280;34665;51.886;5.436;2023-02-12T05:43:09;103720.72;;;17.18;70.12
48846;BME280;34665;51.886;5.436;2023-02-12T05:45:35;103720.00;;;17.57;69.57
48846;BME280;34665;51.886;5.436;2023-02-12T05:48:00;103720.34;;;17.62;69.31
48846;BME280;34665;51.886;5.436;2023-02-12T05:50:27;103722.34;;;17.69;68.80
48846;BME280;34665;51.886;5.436;2023-02-12T05:52:59;103714.19;;;17.85;68.95
48846;BME280;34665;51.886;5.436;2023-02-12T05:55:25;103724.69;;;17.72;69.07
48846;BME280;34665;51.886;5.436;2023-02-12T05:57:51;103718.72;;;17.93;68.57
48846;BME280;34665;51.886;5.436;2023-02-12T06:00:17;103717.50;;;17.96;68.57
48846;BME280;34665;51.886;5.436;2023-02-12T06:02:43;103718.63;;;17.70;68.97
48846;BME280;34665;51.886;5.436;2023-02-12T06:05:09;103715.88;;;17.86;68.58
48846;BME280;34665;51.886;5.436;2023-02-12T06:07:34;103712.13;;;17.87;68.56
48846;BME280;34665;51.886;5.436;2023-02-12T06:10:00;103718.47;;;17.63;68.93
48846;BME280;34665;51.886;5.436;2023-02-12T06:12:25;103719.41;;;17.87;68.39
48846;BME280;34665;51.886;5.436;2023-02-12T06:14:51;103721.28;;;17.86;68.49
48846;BME280;34665;51.886;5.436;2023-02-12T06:17:16;103712.03;;;17.72;68.58
48846;BME280;34665;51.886;5.436;2023-02-12T06:19:42;103721.00;;;17.65;68.42
48846;BME280;34665;51.886;5.436;2023-02-12T06:22:07;103728.41;;;17.79;68.74
48846;BME280;34665;51.886;5.436;2023-02-12T06:24:33;103720.50;;;17.69;69.02
48846;BME280;34665;51.886;5.436;2023-02-12T06:26:58;103727.59;;;17.70;68.65
48846;BME280;34665;51.886;5.436;2023-02-12T06:29:24;103726.03;;;17.76;68.54
48846;BME280;34665;51.886;5.436;2023-02-12T06:31:49;103730.44;;;17.85;68.40
48846;BME280;34665;51.886;5.436;2023-02-12T06:34:15;103728.69;;;17.92;68.50
48846;BME280;34665;51.886;5.436;2023-02-12T06:36:44;103735.44;;;17.97;68.31
48846;BME280;34665;51.886;5.436;2023-02-12T06:39:12;103724.97;;;17.94;68.69
48846;BME280;34665;51.886;5.436;2023-02-12T06:41:38;103728.53;;;17.94;68.56
48846;BME280;34665;51.886;5.436;2023-02-12T06:44:04;103730.75;;;17.90;68.79
48846;BME280;34665;51.886;5.436;2023-02-12T06:46:30;103729.41;;;17.86;69.11
48846;BME280;34665;51.886;5.436;2023-02-12T06:48:58;103736.66;;;17.94;68.92
48846;BME280;34665;51.886;5.436;2023-02-12T06:51:25;103734.34;;;17.74;69.35
48846;BME280;34665;51.886;5.436;2023-02-12T06:53:52;103740.59;;;17.83;69.09
48846;BME280;34665;51.886;5.436;2023-02-12T06:56:20;103744.97;;;17.76;69.67
48846;BME280;34665;51.886;5.436;2023-02-12T06:58:51;103741.75;;;17.81;69.66
48846;BME280;34665;51.886;5.436;2023-02-12T07:01:21;103736.69;;;17.77;69.45
48846;BME280;34665;51.886;5.436;2023-02-12T07:03:57;103744.97;;;17.84;69.40
48846;BME280;34665;51.886;5.436;2023-02-12T07:06:23;103748.97;;;17.97;69.38
48846;BME280;34665;51.886;5.436;2023-02-12T07:08:49;103757.69;;;17.75;69.56
48846;BME280;34665;51.886;5.436;2023-02-12T07:11:17;103755.47;;;17.71;70.08
48846;BME280;34665;51.886;5.436;2023-02-12T07:13:43;103761.94;;;17.28;71.02
48846;BME280;34665;51.886;5.436;2023-02-12T07:16:11;103759.44;;;17.27;70.96
48846;BME280;34665;51.886;5.436;2023-02-12T07:18:38;103759.94;;;17.22;71.88
48846;BME280;34665;51.886;5.436;2023-02-12T07:21:04;103760.75;;;16.98;72.80
48846;BME280;34665;51.886;5.436;2023-02-12T07:23:31;103757.00;;;16.90;73.12
48846;BME280;34665;51.886;5.436;2023-02-12T07:25:58;103763.31;;;17.16;73.44
48846;BME280;34665;51.886;5.436;2023-02-12T07:28:26;103764.50;;;17.22;72.21
48846;BME280;34665;51.886;5.436;2023-02-12T07:30:51;103766.41;;;16.61;74.49
48846;BME280;34665;51.886;5.436;2023-02-12T07:33:18;103768.81;;;16.73;73.88
48846;BME280;34665;51.886;5.436;2023-02-12T07:35:44;103769.22;;;16.43;74.84
48846;BME280;34665;51.886;5.436;2023-02-12T07:38:09;103774.84;;;16.67;74.26
48846;BME280;34665;51.886;5.436;2023-02-12T07:40:35;103772.53;;;16.37;75.03
48846;BME280;34665;51.886;5.436;2023-02-12T07:43:01;103770.66;;;16.72;74.37
48846;BME280;34665;51.886;5.436;2023-02-12T07:45:26;103773.47;;;16.54;74.88
48846;BME280;34665;51.886;5.436;2023-02-12T07:47:52;103776.84;;;16.56;75.64
48846;BME280;34665;51.886;5.436;2023-02-12T07:50:17;103776.91;;;16.81;75.42
48846;BME280;34665;51.886;5.436;2023-02-12T07:52:43;103784.16;;;16.72;74.72
48846;BME280;34665;51.886;5.436;2023-02-12T07:55:08;103778.53;;;17.09;73.20
48846;BME280;34665;51.886;5.436;2023-02-12T07:57:35;103777.78;;;16.90;73.51
48846;BME280;34665;51.886;5.436;2023-02-12T08:00:00;103777.84;;;17.40;72.33
48846;BME280;34665;51.886;5.436;2023-02-12T08:02:26;103781.91;;;17.27;72.64
48846;BME280;34665;51.886;5.436;2023-02-12T08:04:56;103791.38;;;17.31;72.25
48846;BME280;34665;51.886;5.436;2023-02-12T08:07:22;103782.91;;;17.26;72.17
48846;BME280;34665;51.886;5.436;2023-02-12T08:09:47;103789.69;;;17.22;72.07
48846;BME280;34665;51.886;5.436;2023-02-12T08:12:12;103794.22;;;17.05;71.95
48846;BME280;34665;51.886;5.436;2023-02-12T08:14:38;103790.03;;;17.36;71.38
48846;BME280;34665;51.886;5.436;2023-02-12T08:17:03;103794.75;;;17.58;70.83
48846;BME280;34665;51.886;5.436;2023-02-12T08:19:29;103804.41;;;17.44;71.55
48846;BME280;34665;51.886;5.436;2023-02-12T08:21:55;103804.25;;;16.70;73.17
48846;BME280;34665;51.886;5.436;2023-02-12T08:24:22;103800.16;;;17.25;71.93
48846;BME280;34665;51.886;5.436;2023-02-12T08:26:50;103804.41;;;17.19;72.20
48846;BME280;34665;51.886;5.436;2023-02-12T08:29:17;103803.13;;;16.97;72.53
48846;BME280;34665;51.886;5.436;2023-02-12T08:31:45;103805.72;;;17.07;72.94
48846;BME280;34665;51.886;5.436;2023-02-12T08:34:17;103814.34;;;17.11;72.76
48846;BME280;34665;51.886;5.436;2023-02-12T08:36:44;103814.72;;;17.32;71.65
48846;BME280;34665;51.886;5.436;2023-02-12T08:39:10;103820.94;;;17.58;70.52
48846;BME280;34665;51.886;5.436;2023-02-12T08:41:36;103825.69;;;17.39;70.47
48846;BME280;34665;51.886;5.436;2023-02-12T08:44:03;103824.19;;;17.61;70.27
48846;BME280;34665;51.886;5.436;2023-02-12T08:46:31;103823.16;;;17.62;69.72
48846;BME280;34665;51.886;5.436;2023-02-12T08:49:00;103826.84;;;17.20;71.44
48846;BME280;34665;51.886;5.436;2023-02-12T08:51:29;103827.72;;;17.20;72.25
48846;BME280;34665;51.886;5.436;2023-02-12T08:53:58;103829.06;;;17.25;71.39
48846;BME280;34665;51.886;5.436;2023-02-12T08:56:25;103828.22;;;17.49;70.97
48846;BME280;34665;51.886;5.436;2023-02-12T08:58:51;103827.56;;;17.63;70.73
48846;BME280;34665;51.886;5.436;2023-02-12T09:01:20;103836.53;;;17.47;70.56
48846;BME280;34665;51.886;5.436;2023-02-12T09:03:46;103836.16;;;17.59;70.00
48846;BME280;34665;51.886;5.436;2023-02-12T09:06:13;103839.41;;;17.79;69.96
48846;BME280;34665;51.886;5.436;2023-02-12T09:08:39;103838.69;;;17.94;69.66
48846;BME280;34665;51.886;5.436;2023-02-12T09:11:06;103841.44;;;18.02;69.08
48846;BME280;34665;51.886;5.436;2023-02-12T09:13:32;103836.47;;;17.97;69.52
48846;BME280;34665;51.886;5.436;2023-02-12T09:16:00;103831.72;;;18.24;70.04
48846;BME280;34665;51.886;5.436;2023-02-12T09:18:28;103838.53;;;18.03;69.50
48846;BME280;34665;51.886;5.436;2023-02-12T09:20:53;103833.44;;;18.09;70.00
48846;BME280;34665;51.886;5.436;2023-02-12T09:23:19;103831.53;;;18.26;69.77
48846;BME280;34665;51.886;5.436;2023-02-12T09:25:45;103843.13;;;17.78;70.43
48846;BME280;34665;51.886;5.436;2023-02-12T09:28:13;103841.72;;;17.99;70.33
48846;BME280;34665;51.886;5.436;2023-02-12T09:30:39;103841.44;;;18.02;70.38
48846;BME280;34665;51.886;5.436;2023-02-12T09:33:06;103839.31;;;18.20;69.34
48846;BME280;34665;51.886;5.436;2023-02-12T09:35:35;103839.31;;;18.20;68.94
48846;BME280;34665;51.886;5.436;2023-02-12T09:38:02;103835.59;;;18.30;68.40
48846;BME280;34665;51.886;5.436;2023-02-12T09:40:46;103835.50;;;17.57;69.44
48846;BME280;34665;51.886;5.436;2023-02-12T09:46:09;103848.34;;;17.80;69.39
48846;BME280;34665;51.886;5.436;2023-02-12T09:49:08;103848.84;;;18.08;68.51
48846;BME280;34665;51.886;5.436;2023-02-12T09:51:37;103839.03;;;18.07;68.81
48846;BME280;34665;51.886;5.436;2023-02-12T09:54:11;103845.81;;;17.86;68.99
48846;BME280;34665;51.886;5.436;2023-02-12T09:56:39;103844.28;;;17.59;69.02
48846;BME280;34665;51.886;5.436;2023-02-12T09:59:08;103842.09;;;17.71;68.30
48846;BME280;34665;51.886;5.436;2023-02-12T10:01:34;103847.84;;;17.68;67.96
48846;BME280;34665;51.886;5.436;2023-02-12T10:04:00;103853.94;;;17.45;68.54
48846;BME280;34665;51.886;5.436;2023-02-12T10:06:40;103848.38;;;17.71;67.92
48846;BME280;34665;51.886;5.436;2023-02-12T10:25:49;103837.97;;;18.25;67.60
48846;BME280;34665;51.886;5.436;2023-02-12T10:28:20;103833.56;;;18.32;67.40
48846;BME280;34665;51.886;5.436;2023-02-12T10:30:58;103846.94;;;18.25;66.88
48846;BME280;34665;51.886;5.436;2023-02-12T10:33:38;103843.06;;;18.19;67.16
48846;BME280;34665;51.886;5.436;2023-02-12T10:36:17;103850.53;;;18.01;67.13
48846;BME280;34665;51.886;5.436;2023-02-12T10:38:50;103846.50;;;17.55;68.31
48846;BME280;34665;51.886;5.436;2023-02-12T10:41:21;103842.59;;;17.83;67.96
48846;BME280;34665;51.886;5.436;2023-02-12T10:43:49;103846.00;;;17.68;67.55
48846;BME280;34665;51.886;5.436;2023-02-12T10:46:15;103844.44;;;17.74;68.75
48846;BME280;34665;51.886;5.436;2023-02-12T10:48:44;103846.50;;;17.55;68.86
48846;BME280;34665;51.886;5.436;2023-02-12T10:51:33;103845.28;;;17.83;68.27
48846;BME280;34665;51.886;5.436;2023-02-12T10:54:41;103844.09;;;17.94;68.16
48846;BME280;34665;51.886;5.436;2023-02-12T10:59:35;103842.25;;;17.36;68.86
48846;BME280;34665;51.886;5.436;2023-02-12T11:02:01;103839.72;;;17.18;69.25
48846;BME280;34665;51.886;5.436;2023-02-12T11:04:29;103846.16;;;17.42;69.36
48846;BME280;34665;51.886;5.436;2023-02-12T11:06:59;103847.16;;;17.49;69.05
48846;BME280;34665;51.886;5.436;2023-02-12T11:09:35;103848.53;;;17.53;68.83
48846;BME280;34665;51.886;5.436;2023-02-12T11:14:51;103847.31;;;17.81;68.42
48846;BME280;34665;51.886;5.436;2023-02-12T11:17:39;103847.81;;;17.92;68.06
48846;BME280;34665;51.886;5.436;2023-02-12T11:22:56;103843.75;;;17.97;67.82
48846;BME280;34665;51.886;5.436;2023-02-12T11:25:27;103844.00;;;18.43;66.78
48846;BME280;34665;51.886;5.436;2023-02-12T11:28:11;103838.94;;;18.40;66.09
48846;BME280;34665;51.886;5.436;2023-02-12T11:30:52;103840.41;;;18.03;66.75
48846;BME280;34665;51.886;5.436;2023-02-12T11:33:35;103840.03;;;17.98;66.74
48846;BME280;34665;51.886;5.436;2023-02-12T11:38:35;103836.56;;;18.45;65.91
48846;BME280;34665;51.886;5.436;2023-02-12T11:41:05;103833.41;;;18.25;66.37
48846;BME280;34665;51.886;5.436;2023-02-12T11:43:34;103828.72;;;18.11;66.85
48846;BME280;34665;51.886;5.436;2023-02-12T11:46:03;103818.59;;;18.44;66.02
48846;BME280;34665;51.886;5.436;2023-02-12T11:48:38;103826.13;;;18.26;66.34
48846;BME280;34665;51.886;5.436;2023-02-12T11:51:07;103822.41;;;18.27;65.77
48846;BME280;34665;51.886;5.436;2023-02-12T11:53:46;103821.53;;;18.26;65.61
48846;BME280;34665;51.886;5.436;2023-02-12T11:56:13;103817.28;;;18.72;65.39
48846;BME280;34665;51.886;5.436;2023-02-12T11:58:39;103812.22;;;18.69;65.30
48846;BME280;34665;51.886;5.436;2023-02-12T12:01:18;103817.34;;;18.87;65.27
48846;BME280;34665;51.886;5.436;2023-02-12T12:04:08;103821.38;;;19.23;64.62
48846;BME280;34665;51.886;5.436;2023-02-12T12:06:59;103812.63;;;19.59;63.47
48846;BME280;34665;51.886;5.436;2023-02-12T12:09:36;103812.47;;;19.37;63.20
48846;BME280;34665;51.886;5.436;2023-02-12T12:14:41;103805.25;;;19.83;62.71
48846;BME280;34665;51.886;5.436;2023-02-12T12:20:35;103798.47;;;20.02;61.46
48846;BME280;34665;51.886;5.436;2023-02-12T12:23:18;103805.38;;;19.89;60.80
48846;BME280;34665;51.886;5.436;2023-02-12T12:25:55;103793.06;;;19.25;61.45
48846;BME280;34665;51.886;5.436;2023-02-12T12:28:34;103781.88;;;19.05;61.40
48846;BME280;34665;51.886;5.436;2023-02-12T12:31:15;103789.25;;;19.34;60.33
48846;BME280;34665;51.886;5.436;2023-02-12T12:36:51;103789.28;;;19.11;61.24
48846;BME280;34665;51.886;5.436;2023-02-12T12:42:22;103779.28;;;19.50;60.73
48846;BME280;34665;51.886;5.436;2023-02-12T12:45:05;103779.50;;;19.63;60.19
48846;BME280;34665;51.886;5.436;2023-02-12T12:47:44;103781.31;;;19.10;60.47
48846;BME280;34665;51.886;5.436;2023-02-12T13:04:31;103764.91;;;19.03;60.76
48846;BME280;34665;51.886;5.436;2023-02-12T13:15:03;103750.84;;;19.23;60.84
48846;BME280;34665;51.886;5.436;2023-02-12T13:17:34;103751.84;;;19.45;60.38
48846;BME280;34665;51.886;5.436;2023-02-12T13:20:11;103752.84;;;19.29;60.11
48846;BME280;34665;51.886;5.436;2023-02-12T13:23:01;103757.78;;;19.63;59.76
48846;BME280;34665;51.886;5.436;2023-02-12T13:31:28;103751.63;;;19.31;59.32
48846;BME280;34665;51.886;5.436;2023-02-12T13:33:57;103749.16;;;19.22;59.16
48846;BME280;34665;51.886;5.436;2023-02-12T13:36:24;103747.91;;;19.47;58.93
48846;BME280;34665;51.886;5.436;2023-02-12T13:39:11;103747.06;;;19.32;59.24
48846;BME280;34665;51.886;5.436;2023-02-12T13:41:44;103749.53;;;19.42;58.69
48846;BME280;34665;51.886;5.436;2023-02-12T13:44:19;103741.84;;;19.60;58.67
48846;BME280;34665;51.886;5.436;2023-02-12T13:52:52;103731.84;;;19.46;58.69
48846;BME280;34665;51.886;5.436;2023-02-12T13:55:29;103737.94;;;19.78;58.60
48846;BME280;34665;51.886;5.436;2023-02-12T14:01:56;103733.56;;;19.92;57.74
48846;BME280;34665;51.886;5.436;2023-02-12T14:04:13;103730.38;;;19.88;57.21
48846;BME280;34665;51.886;5.436;2023-02-12T14:06:51;103722.56;;;19.70;57.44
48846;BME280;34665;51.886;5.436;2023-02-12T14:09:21;103722.03;;;19.75;57.56
48846;BME280;34665;51.886;5.436;2023-02-12T14:11:52;103724.06;;;19.43;57.54
48846;BME280;34665;51.886;5.436;2023-02-12T14:14:31;103722.75;;;19.39;57.88
48846;BME280;34665;51.886;5.436;2023-02-12T14:19:57;103719.69;;;19.57;57.83
48846;BME280;34665;51.886;5.436;2023-02-12T14:24:55;103721.84;;;19.61;57.59
48846;BME280;34665;51.886;5.436;2023-02-12T14:30:29;103719.84;;;19.55;57.53
48846;BME280;34665;51.886;5.436;2023-02-12T14:33:08;103725.75;;;19.44;57.87
48846;BME280;34665;51.886;5.436;2023-02-12T14:35:36;103721.59;;;19.18;58.42
48846;BME280;34665;51.886;5.436;2023-02-12T14:40:39;103706.63;;;18.75;58.80
48846;BME280;34665;51.886;5.436;2023-02-12T14:43:32;103710.00;;;19.24;58.38
48846;BME280;34665;51.886;5.436;2023-02-12T14:51:45;103707.69;;;19.51;58.38
48846;BME280;34665;51.886;5.436;2023-02-12T14:54:39;103708.63;;;19.58;58.00
48846;BME280;34665;51.886;5.436;2023-02-12T14:57:10;103705.84;;;19.67;57.98
48846;BME280;34665;51.886;5.436;2023-02-12T14:59:39;103709.97;;;19.62;58.06
48846;BME280;34665;51.886;5.436;2023-02-12T15:02:13;103708.94;;;19.63;57.87
48846;BME280;34665;51.886;5.436;2023-02-12T15:04:44;103705.72;;;19.60;57.47
48846;BME280;34665;51.886;5.436;2023-02-12T15:07:13;103701.13;;;19.60;57.88